Station Historical Data
Daily Summary for February 24, 2017 Units:  Both    English   Metric
« Previous Day
Next Day »
Daily Weekly Monthly Yearly Custom
  High: Low: Average:
Temperature: 72.3 °F /  22.4 °C 42.2 °F /  5.7 °C 53.5 °F /  11.9 °C
Dew Point: 59.2 °F /  15.1 °C 38.0 °F /  3.3 °C 47.3 °F /  8.5 °C
Humidity: 95% 60% 81%
Wind Speed: 10.0mph /  16.1km/h - 3.3mph /  5.3km/h
Wind Gust: 21.0mph /  33.8km/h - -
Wind- - ESE
Pressure: 29.87 in /  1011.4 hPa 29.50 in /  998.9 hPa -
Precipitation: 0.00 in /  0 mm    
Historical Graphs
 
 
Tabular Data for February 24, 2017
Time Temperature Dew Point Pressure Wind Wind Speed Wind Gust Humidity Rainfall Rate (Hourly)
00:04 42.6 °F /  5.9 °C 38.1 °F /  3.4 °C 29.85in /  1010.7hPa NNE 4.0mph /  6.4km/h 5.0mph /  8km/h 84% 0.00in /  0mm
00:09 42.5 °F /  5.8 °C 38.0 °F /  3.3 °C 29.84in /  1010.4hPa ENE 5.0mph /  8km/h 6.0mph /  9.7km/h 84% 0.00in /  0mm
00:14 42.5 °F /  5.8 °C 38.0 °F /  3.3 °C 29.84in /  1010.4hPa ENE 1.0mph /  1.6km/h 6.0mph /  9.7km/h 84% 0.00in /  0mm
00:19 42.5 °F /  5.8 °C 38.3 °F /  3.5 °C 29.84in /  1010.4hPa NE 4.0mph /  6.4km/h 5.0mph /  8km/h 85% 0.00in /  0mm
00:24 42.5 °F /  5.8 °C 38.3 °F /  3.5 °C 29.84in /  1010.4hPa NE 3.0mph /  4.8km/h 5.0mph /  8km/h 85% 0.00in /  0mm
00:29 42.6 °F /  5.9 °C 38.4 °F /  3.6 °C 29.85in /  1010.7hPa NE 3.0mph /  4.8km/h 5.0mph /  8km/h 85% 0.00in /  0mm
00:34 42.7 °F /  5.9 °C 38.2 °F /  3.4 °C 29.85in /  1010.7hPa NE 3.0mph /  4.8km/h 5.0mph /  8km/h 84% 0.00in /  0mm
00:39 42.7 °F /  5.9 °C 38.2 °F /  3.4 °C 29.85in /  1010.7hPa NE 3.0mph /  4.8km/h 4.0mph /  6.4km/h 84% 0.00in /  0mm
00:44 42.8 °F /  6 °C 38.3 °F /  3.5 °C 29.85in /  1010.7hPa NNE 1.0mph /  1.6km/h 4.0mph /  6.4km/h 84% 0.00in /  0mm
00:49 42.9 °F /  6.1 °C 38.4 °F /  3.6 °C 29.85in /  1010.7hPa NE 2.0mph /  3.2km/h 5.0mph /  8km/h 84% 0.00in /  0mm
00:54 42.9 °F /  6.1 °C 38.4 °F /  3.6 °C 29.85in /  1010.7hPa NE 3.0mph /  4.8km/h 4.0mph /  6.4km/h 84% 0.00in /  0mm
00:59 42.9 °F /  6.1 °C 38.4 °F /  3.6 °C 29.85in /  1010.7hPa NE 5.0mph /  8km/h 6.0mph /  9.7km/h 84% 0.00in /  0mm
01:04 42.9 °F /  6.1 °C 38.4 °F /  3.6 °C 29.85in /  1010.7hPa NE 3.0mph /  4.8km/h 6.0mph /  9.7km/h 84% 0.00in /  0mm
01:09 43.0 °F /  6.1 °C 38.8 °F /  3.8 °C 29.86in /  1011.1hPa NNE 3.0mph /  4.8km/h 5.0mph /  8km/h 85% 0.00in /  0mm
01:14 43.1 °F /  6.2 °C 38.9 °F /  3.8 °C 29.86in /  1011.1hPa NNE 3.0mph /  4.8km/h 5.0mph /  8km/h 85% 0.00in /  0mm
01:19 43.2 °F /  6.2 °C 38.7 °F /  3.7 °C 29.86in /  1011.1hPa NNE 3.0mph /  4.8km/h 5.0mph /  8km/h 84% 0.00in /  0mm
01:24 43.1 °F /  6.2 °C 38.6 °F /  3.7 °C 29.87in /  1011.4hPa NNE 3.0mph /  4.8km/h 7.0mph /  11.3km/h 84% 0.00in /  0mm
01:29 43.1 °F /  6.2 °C 38.9 °F /  3.8 °C 29.87in /  1011.4hPa NNE 3.0mph /  4.8km/h 7.0mph /  11.3km/h 85% 0.00in /  0mm
01:34 43.1 °F /  6.2 °C 38.9 °F /  3.8 °C 29.86in /  1011.1hPa NNE 3.0mph /  4.8km/h 7.0mph /  11.3km/h 85% 0.00in /  0mm
01:39 43.1 °F /  6.2 °C 38.9 °F /  3.8 °C 29.87in /  1011.4hPa NE 3.0mph /  4.8km/h 6.0mph /  9.7km/h 85% 0.00in /  0mm
01:44 43.2 °F /  6.2 °C 39.0 °F /  3.9 °C 29.86in /  1011.1hPa NE 5.0mph /  8km/h 9.0mph /  14.5km/h 85% 0.00in /  0mm
01:49 43.4 °F /  6.3 °C 38.9 °F /  3.8 °C 29.86in /  1011.1hPa NE 7.0mph /  11.3km/h 14.0mph /  22.5km/h 84% 0.00in /  0mm
01:54 43.5 °F /  6.4 °C 39.0 °F /  3.9 °C 29.86in /  1011.1hPa NNE 3.0mph /  4.8km/h 10.0mph /  16.1km/h 84% 0.00in /  0mm
01:59 43.6 °F /  6.4 °C 38.8 °F /  3.8 °C 29.86in /  1011.1hPa NE 4.0mph /  6.4km/h 12.0mph /  19.3km/h 83% 0.00in /  0mm
02:04 43.6 °F /  6.4 °C 38.8 °F /  3.8 °C 29.86in /  1011.1hPa NNE 4.0mph /  6.4km/h 8.0mph /  12.9km/h 83% 0.00in /  0mm
02:09 43.5 °F /  6.4 °C 39.0 °F /  3.9 °C 29.86in /  1011.1hPa NE 5.0mph /  8km/h 11.0mph /  17.7km/h 84% 0.00in /  0mm
02:14 43.4 °F /  6.3 °C 38.9 °F /  3.8 °C 29.86in /  1011.1hPa NE 5.0mph /  8km/h 11.0mph /  17.7km/h 84% 0.00in /  0mm
02:19 43.4 °F /  6.3 °C 38.9 °F /  3.8 °C 29.86in /  1011.1hPa NE 4.0mph /  6.4km/h 10.0mph /  16.1km/h 84% 0.00in /  0mm
02:24 43.3 °F /  6.3 °C 38.8 °F /  3.8 °C 29.85in /  1010.7hPa NNE 5.0mph /  8km/h 10.0mph /  16.1km/h 84% 0.00in /  0mm
02:29 43.2 °F /  6.2 °C 38.7 °F /  3.7 °C 29.85in /  1010.7hPa NNE 4.0mph /  6.4km/h 10.0mph /  16.1km/h 84% 0.00in /  0mm
02:34 43.2 °F /  6.2 °C 38.7 °F /  3.7 °C 29.84in /  1010.4hPa NE 3.0mph /  4.8km/h 10.0mph /  16.1km/h 84% 0.00in /  0mm
02:39 43.1 °F /  6.2 °C 38.6 °F /  3.7 °C 29.85in /  1010.7hPa NNE 4.0mph /  6.4km/h 10.0mph /  16.1km/h 84% 0.00in /  0mm
02:44 43.0 °F /  6.1 °C 38.5 °F /  3.6 °C 29.84in /  1010.4hPa NE 5.0mph /  8km/h 10.0mph /  16.1km/h 84% 0.00in /  0mm
02:49 43.0 °F /  6.1 °C 38.5 °F /  3.6 °C 29.84in /  1010.4hPa NE 5.0mph /  8km/h 9.0mph /  14.5km/h 84% 0.00in /  0mm
02:54 42.9 °F /  6.1 °C 38.7 °F /  3.7 °C 29.84in /  1010.4hPa NE 6.0mph /  9.7km/h 11.0mph /  17.7km/h 85% 0.00in /  0mm
02:59 42.9 °F /  6.1 °C 38.4 °F /  3.6 °C 29.83in /  1010hPa ENE 5.0mph /  8km/h 12.0mph /  19.3km/h 84% 0.00in /  0mm
03:04 42.9 °F /  6.1 °C 38.7 °F /  3.7 °C 29.83in /  1010hPa ENE 4.0mph /  6.4km/h 10.0mph /  16.1km/h 85% 0.00in /  0mm
03:09 42.9 °F /  6.1 °C 38.7 °F /  3.7 °C 29.83in /  1010hPa NE 2.0mph /  3.2km/h 10.0mph /  16.1km/h 85% 0.00in /  0mm
03:14 42.9 °F /  6.1 °C 38.7 °F /  3.7 °C 29.84in /  1010.4hPa NE 4.0mph /  6.4km/h 8.0mph /  12.9km/h 85% 0.00in /  0mm
03:19 42.9 °F /  6.1 °C 38.7 °F /  3.7 °C 29.83in /  1010hPa NE 4.0mph /  6.4km/h 9.0mph /  14.5km/h 85% 0.00in /  0mm
03:24 43.0 °F /  6.1 °C 38.8 °F /  3.8 °C 29.83in /  1010hPa NE 5.0mph /  8km/h 9.0mph /  14.5km/h 85% 0.00in /  0mm
03:29 43.0 °F /  6.1 °C 38.8 °F /  3.8 °C 29.83in /  1010hPa NE 6.0mph /  9.7km/h 9.0mph /  14.5km/h 85% 0.00in /  0mm
03:34 43.0 °F /  6.1 °C 39.1 °F /  3.9 °C 29.83in /  1010hPa NE 5.0mph /  8km/h 9.0mph /  14.5km/h 86% 0.00in /  0mm
03:39 43.1 °F /  6.2 °C 39.2 °F /  4 °C 29.82in /  1009.7hPa NE 4.0mph /  6.4km/h 9.0mph /  14.5km/h 86% 0.01in /  0.25mm
03:44 43.0 °F /  6.1 °C 39.1 °F /  3.9 °C 29.82in /  1009.7hPa NE 4.0mph /  6.4km/h 9.0mph /  14.5km/h 86% 0.01in /  0.25mm
03:49 42.9 °F /  6.1 °C 39.3 °F /  4.1 °C 29.82in /  1009.7hPa NE 2.0mph /  3.2km/h 8.0mph /  12.9km/h 87% 0.01in /  0.25mm
03:54 42.8 °F /  6 °C 39.2 °F /  4 °C 29.82in /  1009.7hPa NNE 3.0mph /  4.8km/h 8.0mph /  12.9km/h 87% 0.01in /  0.25mm
03:59 42.8 °F /  6 °C 39.2 °F /  4 °C 29.81in /  1009.4hPa ENE 9.0mph /  14.5km/h 12.0mph /  19.3km/h 87% 0.01in /  0.25mm
04:04 42.7 °F /  5.9 °C 39.1 °F /  3.9 °C 29.82in /  1009.7hPa NE 1.0mph /  1.6km/h 9.0mph /  14.5km/h 87% 0.01in /  0.25mm
04:09 42.7 °F /  5.9 °C 39.1 °F /  3.9 °C 29.82in /  1009.7hPa NE 6.0mph /  9.7km/h 11.0mph /  17.7km/h 87% 0.01in /  0.25mm
04:14 42.6 °F /  5.9 °C 39.3 °F /  4.1 °C 29.82in /  1009.7hPa NE 4.0mph /  6.4km/h 9.0mph /  14.5km/h 88% 0.01in /  0.25mm
04:19 42.5 °F /  5.8 °C 39.2 °F /  4 °C 29.82in /  1009.7hPa ENE 3.0mph /  4.8km/h 8.0mph /  12.9km/h 88% 0.01in /  0.25mm
04:24 42.6 °F /  5.9 °C 39.3 °F /  4.1 °C 29.82in /  1009.7hPa NE 4.0mph /  6.4km/h 8.0mph /  12.9km/h 88% 0.01in /  0.25mm
04:29 42.6 °F /  5.9 °C 39.3 °F /  4.1 °C 29.82in /  1009.7hPa NE 4.0mph /  6.4km/h 8.0mph /  12.9km/h 88% 0.01in /  0.25mm
04:34 42.6 °F /  5.9 °C 39.3 °F /  4.1 °C 29.82in /  1009.7hPa NNE 4.0mph /  6.4km/h 8.0mph /  12.9km/h 88% 0.01in /  0.25mm
04:39 42.6 °F /  5.9 °C 39.3 °F /  4.1 °C 29.82in /  1009.7hPa NNE 3.0mph /  4.8km/h 6.0mph /  9.7km/h 88% 0.00in /  0mm
04:44 42.6 °F /  5.9 °C 39.6 °F /  4.2 °C 29.82in /  1009.7hPa NNE 3.0mph /  4.8km/h 5.0mph /  8km/h 89% 0.00in /  0mm
04:49 42.5 °F /  5.8 °C 39.5 °F /  4.2 °C 29.82in /  1009.7hPa NNE 3.0mph /  4.8km/h 6.0mph /  9.7km/h 89% 0.00in /  0mm
04:54 42.5 °F /  5.8 °C 39.5 °F /  4.2 °C 29.81in /  1009.4hPa NNE 4.0mph /  6.4km/h 7.0mph /  11.3km/h 89% 0.00in /  0mm
04:59 42.4 °F /  5.8 °C 39.4 °F /  4.1 °C 29.80in /  1009hPa NNE 8.0mph /  12.9km/h 11.0mph /  17.7km/h 89% 0.00in /  0mm
05:04 42.4 °F /  5.8 °C 39.4 °F /  4.1 °C 29.80in /  1009hPa ENE 8.0mph /  12.9km/h 11.0mph /  17.7km/h 89% 0.01in /  0.25mm
05:09 42.3 °F /  5.7 °C 39.3 °F /  4.1 °C 29.80in /  1009hPa ESE 3.0mph /  4.8km/h 9.0mph /  14.5km/h 89% 0.01in /  0.25mm
05:14 42.3 °F /  5.7 °C 39.3 °F /  4.1 °C 29.81in /  1009.4hPa ENE 2.0mph /  3.2km/h 10.0mph /  16.1km/h 89% 0.01in /  0.25mm
05:19 42.3 °F /  5.7 °C 39.6 °F /  4.2 °C 29.81in /  1009.4hPa NE 5.0mph /  8km/h 8.0mph /  12.9km/h 90% 0.01in /  0.25mm
05:24 42.3 °F /  5.7 °C 39.6 °F /  4.2 °C 29.80in /  1009hPa ENE 4.0mph /  6.4km/h 10.0mph /  16.1km/h 90% 0.02in /  0.51mm
05:29 42.2 °F /  5.7 °C 39.5 °F /  4.2 °C 29.80in /  1009hPa NE 5.0mph /  8km/h 10.0mph /  16.1km/h 90% 0.02in /  0.51mm
05:34 42.3 °F /  5.7 °C 39.6 °F /  4.2 °C 29.79in /  1008.7hPa NE 5.0mph /  8km/h 8.0mph /  12.9km/h 90% 0.03in /  0.76mm
05:39 42.4 °F /  5.8 °C 39.7 °F /  4.3 °C 29.79in /  1008.7hPa NE 4.0mph /  6.4km/h 8.0mph /  12.9km/h 90% 0.04in /  1.02mm
05:44 42.4 °F /  5.8 °C 40.0 °F /  4.4 °C 29.80in /  1009hPa NE 4.0mph /  6.4km/h 8.0mph /  12.9km/h 91% 0.05in /  1.27mm
05:49 42.4 °F /  5.8 °C 40.0 °F /  4.4 °C 29.80in /  1009hPa NNE 3.0mph /  4.8km/h 6.0mph /  9.7km/h 91% 0.06in /  1.52mm
05:54 42.4 °F /  5.8 °C 40.0 °F /  4.4 °C 29.80in /  1009hPa NNE 3.0mph /  4.8km/h 7.0mph /  11.3km/h 91% 0.07in /  1.78mm
05:59 42.4 °F /  5.8 °C 40.0 °F /  4.4 °C 29.80in /  1009hPa NE 3.0mph /  4.8km/h 7.0mph /  11.3km/h 91% 0.08in /  2.03mm
06:04 42.5 °F /  5.8 °C 40.1 °F /  4.5 °C 29.80in /  1009hPa NE 3.0mph /  4.8km/h 7.0mph /  11.3km/h 91% 0.08in /  2.03mm
06:09 42.5 °F /  5.8 °C 40.1 °F /  4.5 °C 29.80in /  1009hPa ENE 3.0mph /  4.8km/h 6.0mph /  9.7km/h 91% 0.09in /  2.29mm
06:14 42.6 °F /  5.9 °C 40.2 °F /  4.6 °C 29.79in /  1008.7hPa ENE 3.0mph /  4.8km/h 10.0mph /  16.1km/h 91% 0.11in /  2.79mm
06:19 42.7 °F /  5.9 °C 40.5 °F /  4.7 °C 29.79in /  1008.7hPa ENE 1.0mph /  1.6km/h 7.0mph /  11.3km/h 92% 0.12in /  3.05mm
06:24 42.9 °F /  6.1 °C 40.7 °F /  4.8 °C 29.78in /  1008.4hPa ENE 1.0mph /  1.6km/h 7.0mph /  11.3km/h 92% 0.11in /  2.79mm
06:29 43.0 °F /  6.1 °C 40.8 °F /  4.9 °C 29.78in /  1008.4hPa NNE 4.0mph /  6.4km/h 10.0mph /  16.1km/h 92% 0.11in /  2.79mm
06:34 43.0 °F /  6.1 °C 40.8 °F /  4.9 °C 29.78in /  1008.4hPa ENE 4.0mph /  6.4km/h 10.0mph /  16.1km/h 92% 0.10in /  2.54mm
06:39 43.1 °F /  6.2 °C 40.9 °F /  4.9 °C 29.78in /  1008.4hPa ENE 3.0mph /  4.8km/h 8.0mph /  12.9km/h 92% 0.09in /  2.29mm
06:44 43.3 °F /  6.3 °C 41.1 °F /  5.1 °C 29.77in /  1008hPa East 5.0mph /  8km/h 9.0mph /  14.5km/h 92% 0.09in /  2.29mm
06:49 43.4 °F /  6.3 °C 41.2 °F /  5.1 °C 29.77in /  1008hPa ENE 7.0mph /  11.3km/h 8.0mph /  12.9km/h 92% 0.08in /  2.03mm
06:54 43.6 °F /  6.4 °C 41.4 °F /  5.2 °C 29.77in /  1008hPa NE 2.0mph /  3.2km/h 9.0mph /  14.5km/h 92% 0.07in /  1.78mm
06:59 43.7 °F /  6.5 °C 41.5 °F /  5.3 °C 29.77in /  1008hPa ENE 3.0mph /  4.8km/h 8.0mph /  12.9km/h 92% 0.06in /  1.52mm
07:04 43.8 °F /  6.6 °C 41.6 °F /  5.3 °C 29.77in /  1008hPa ENE 3.0mph /  4.8km/h 8.0mph /  12.9km/h 92% 0.05in /  1.27mm
07:09 43.9 °F /  6.6 °C 41.7 °F /  5.4 °C 29.77in /  1008hPa ENE 3.0mph /  4.8km/h 7.0mph /  11.3km/h 92% 0.05in /  1.27mm
07:14 44.0 °F /  6.7 °C 41.8 °F /  5.4 °C 29.77in /  1008hPa ENE 3.0mph /  4.8km/h 7.0mph /  11.3km/h 92% 0.03in /  0.76mm
07:19 44.1 °F /  6.7 °C 41.9 °F /  5.5 °C 29.77in /  1008hPa NE 1.0mph /  1.6km/h 7.0mph /  11.3km/h 92% 0.04in /  1.02mm
07:24 44.3 °F /  6.8 °C 42.1 °F /  5.6 °C 29.77in /  1008hPa NE 3.0mph /  4.8km/h 7.0mph /  11.3km/h 92% 0.04in /  1.02mm
07:29 44.4 °F /  6.9 °C 42.5 °F /  5.8 °C 29.77in /  1008hPa ENE 1.0mph /  1.6km/h 5.0mph /  8km/h 93% 0.05in /  1.27mm
07:34 44.5 °F /  6.9 °C 42.6 °F /  5.9 °C 29.76in /  1007.7hPa East 2.0mph /  3.2km/h 3.0mph /  4.8km/h 93% 0.05in /  1.27mm
07:39 44.5 °F /  6.9 °C 42.6 °F /  5.9 °C 29.76in /  1007.7hPa ENE 2.0mph /  3.2km/h 5.0mph /  8km/h 93% 0.05in /  1.27mm
07:44 44.7 °F /  7.1 °C 42.8 °F /  6 °C 29.76in /  1007.7hPa ENE 2.0mph /  3.2km/h 6.0mph /  9.7km/h 93% 0.04in /  1.02mm
07:49 44.8 °F /  7.1 °C 42.9 °F /  6.1 °C 29.76in /  1007.7hPa ENE 3.0mph /  4.8km/h 6.0mph /  9.7km/h 93% 0.04in /  1.02mm
07:54 45.0 °F /  7.2 °C 43.1 °F /  6.2 °C 29.76in /  1007.7hPa ENE 3.0mph /  4.8km/h 6.0mph /  9.7km/h 93% 0.04in /  1.02mm
07:59 45.1 °F /  7.3 °C 43.2 °F /  6.2 °C 29.76in /  1007.7hPa ENE 3.0mph /  4.8km/h 6.0mph /  9.7km/h 93% 0.04in /  1.02mm
08:04 45.2 °F /  7.3 °C 43.3 °F /  6.3 °C 29.76in /  1007.7hPa ENE 1.0mph /  1.6km/h 5.0mph /  8km/h 93% 0.04in /  1.02mm
08:09 45.3 °F /  7.4 °C 43.4 °F /  6.3 °C 29.76in /  1007.7hPa NE 4.0mph /  6.4km/h 5.0mph /  8km/h 93% 0.03in /  0.76mm
08:14 45.4 °F /  7.4 °C 43.5 °F /  6.4 °C 29.77in /  1008hPa NE 2.0mph /  3.2km/h 5.0mph /  8km/h 93% 0.03in /  0.76mm
08:19 45.5 °F /  7.5 °C 43.6 °F /  6.4 °C 29.76in /  1007.7hPa NE 2.0mph /  3.2km/h 4.0mph /  6.4km/h 93% 0.01in /  0.25mm
08:24 45.6 °F /  7.6 °C 43.7 °F /  6.5 °C 29.77in /  1008hPa SE 2.0mph /  3.2km/h 3.0mph /  4.8km/h 93% 0.01in /  0.25mm
08:29 45.7 °F /  7.6 °C 43.8 °F /  6.6 °C 29.77in /  1008hPa East 1.0mph /  1.6km/h 6.0mph /  9.7km/h 93% 0.00in /  0mm
08:34 45.7 °F /  7.6 °C 43.8 °F /  6.6 °C 29.76in /  1007.7hPa ENE 2.0mph /  3.2km/h 3.0mph /  4.8km/h 93% 0.01in /  0.25mm
08:39 45.8 °F /  7.7 °C 43.9 °F /  6.6 °C 29.76in /  1007.7hPa Calm   3.0mph /  4.8km/h 93% 0.01in /  0.25mm
08:44 45.8 °F /  7.7 °C 43.9 °F /  6.6 °C 29.77in /  1008hPa ENE 1.0mph /  1.6km/h 5.0mph /  8km/h 93% 0.02in /  0.51mm
08:49 45.9 °F /  7.7 °C 44.0 °F /  6.7 °C 29.77in /  1008hPa East 1.0mph /  1.6km/h 5.0mph /  8km/h 93% 0.02in /  0.51mm
08:54 46.0 °F /  7.8 °C 44.1 °F /  6.7 °C 29.77in /  1008hPa ENE 1.0mph /  1.6km/h 2.0mph /  3.2km/h 93% 0.03in /  0.76mm
08:59 46.2 °F /  7.9 °C 44.3 °F /  6.8 °C 29.77in /  1008hPa Calm     93% 0.04in /  1.02mm
09:04 46.3 °F /  7.9 °C 44.4 °F /  6.9 °C 29.77in /  1008hPa Calm     93% 0.05in /  1.27mm
09:09 46.3 °F /  7.9 °C 44.4 °F /  6.9 °C 29.76in /  1007.7hPa Calm     93% 0.06in /  1.52mm
09:14 46.4 °F /  8 °C 44.5 °F /  6.9 °C 29.75in /  1007.3hPa ENE 1.0mph /  1.6km/h 5.0mph /  8km/h 93% 0.06in /  1.52mm
09:19 46.5 °F /  8.1 °C 44.9 °F /  7.2 °C 29.75in /  1007.3hPa East 2.0mph /  3.2km/h 5.0mph /  8km/h 94% 0.07in /  1.78mm
09:24 46.6 °F /  8.1 °C 45.0 °F /  7.2 °C 29.75in /  1007.3hPa ESE 2.0mph /  3.2km/h 4.0mph /  6.4km/h 94% 0.07in /  1.78mm
09:29 46.9 °F /  8.3 °C 45.3 °F /  7.4 °C 29.74in /  1007hPa East 2.0mph /  3.2km/h 5.0mph /  8km/h 94% 0.07in /  1.78mm
09:34 47.1 °F /  8.4 °C 45.5 °F /  7.5 °C 29.74in /  1007hPa ESE 2.0mph /  3.2km/h 4.0mph /  6.4km/h 94% 0.06in /  1.52mm
09:39 47.5 °F /  8.6 °C 45.9 °F /  7.7 °C 29.74in /  1007hPa East 1.0mph /  1.6km/h 5.0mph /  8km/h 94% 0.06in /  1.52mm
09:44 48.0 °F /  8.9 °C 46.4 °F /  8 °C 29.73in /  1006.7hPa Calm   2.0mph /  3.2km/h 94% 0.05in /  1.27mm
09:49 48.6 °F /  9.2 °C 47.0 °F /  8.3 °C 29.73in /  1006.7hPa Calm   2.0mph /  3.2km/h 94% 0.05in /  1.27mm
09:54 49.3 °F /  9.6 °C 47.9 °F /  8.8 °C 29.72in /  1006.3hPa Calm     95% 0.04in /  1.02mm
09:59 50.2 °F /  10.1 °C 48.8 °F /  9.3 °C 29.72in /  1006.3hPa Calm     95% 0.03in /  0.76mm
10:04 51.1 °F /  10.6 °C 49.7 °F /  9.8 °C 29.72in /  1006.3hPa Calm     95% 0.02in /  0.51mm
10:09 51.8 °F /  11 °C 50.4 °F /  10.2 °C 29.72in /  1006.3hPa Calm   5.0mph /  8km/h 95% 0.01in /  0.25mm
10:14 52.6 °F /  11.4 °C 51.2 °F /  10.7 °C 29.71in /  1006hPa Calm     95% 0.01in /  0.25mm
10:19 53.4 °F /  11.9 °C 51.7 °F /  10.9 °C 29.71in /  1006hPa Calm     94% 0.00in /  0mm
10:24 54.6 °F /  12.6 °C 52.9 °F /  11.6 °C 29.71in /  1006hPa Calm   2.0mph /  3.2km/h 94% 0.00in /  0mm
10:29 55.3 °F /  12.9 °C 53.6 °F /  12 °C 29.71in /  1006hPa SE 1.0mph /  1.6km/h 3.0mph /  4.8km/h 94% 0.00in /  0mm
10:34 56.3 °F /  13.5 °C 54.6 °F /  12.6 °C 29.71in /  1006hPa Calm   3.0mph /  4.8km/h 94% 0.00in /  0mm
10:39 58.7 °F /  14.8 °C 56.7 °F /  13.7 °C 29.70in /  1005.6hPa SSE 1.0mph /  1.6km/h 3.0mph /  4.8km/h 93% 0.00in /  0mm
10:44 60.0 °F /  15.6 °C 57.1 °F /  13.9 °C 29.70in /  1005.6hPa South 1.0mph /  1.6km/h 5.0mph /  8km/h 90% 0.00in /  0mm
10:49 61.4 °F /  16.3 °C 57.5 °F /  14.2 °C 29.70in /  1005.6hPa South 3.0mph /  4.8km/h 6.0mph /  9.7km/h 87% 0.00in /  0mm
10:54 63.2 °F /  17.3 °C 57.9 °F /  14.4 °C 29.70in /  1005.6hPa SSW 4.0mph /  6.4km/h 10.0mph /  16.1km/h 83% 0.00in /  0mm
10:59 63.4 °F /  17.4 °C 57.1 °F /  13.9 °C 29.69in /  1005.3hPa SSW 4.0mph /  6.4km/h 10.0mph /  16.1km/h 80% 0.00in /  0mm
11:04 63.9 °F /  17.7 °C 56.9 °F /  13.8 °C 29.69in /  1005.3hPa South 6.0mph /  9.7km/h 11.0mph /  17.7km/h 78% 0.00in /  0mm
11:09 64.9 °F /  18.3 °C 57.9 °F /  14.4 °C 29.69in /  1005.3hPa South 6.0mph /  9.7km/h 14.0mph /  22.5km/h 78% 0.00in /  0mm
11:14 65.5 °F /  18.6 °C 57.7 °F /  14.3 °C 29.69in /  1005.3hPa South 6.0mph /  9.7km/h 14.0mph /  22.5km/h 76% 0.00in /  0mm
11:19 65.7 °F /  18.7 °C 57.6 °F /  14.2 °C 29.69in /  1005.3hPa South 6.0mph /  9.7km/h 12.0mph /  19.3km/h 75% 0.00in /  0mm
11:24 66.4 °F /  19.1 °C 57.9 °F /  14.4 °C 29.69in /  1005.3hPa South 6.0mph /  9.7km/h 13.0mph /  20.9km/h 74% 0.00in /  0mm
11:29 67.0 °F /  19.4 °C 58.1 °F /  14.5 °C 29.69in /  1005.3hPa South 5.0mph /  8km/h 13.0mph /  20.9km/h 73% 0.00in /  0mm
11:34 67.9 °F /  19.9 °C 58.5 °F /  14.7 °C 29.69in /  1005.3hPa SSW 6.0mph /  9.7km/h 9.0mph /  14.5km/h 72% 0.00in /  0mm
11:39 68.2 °F /  20.1 °C 58.4 °F /  14.7 °C 29.68in /  1005hPa South 4.0mph /  6.4km/h 7.0mph /  11.3km/h 71% 0.00in /  0mm
11:44 68.3 °F /  20.2 °C 58.1 °F /  14.5 °C 29.69in /  1005.3hPa SSE 3.0mph /  4.8km/h 8.0mph /  12.9km/h 70% 0.00in /  0mm
11:49 68.5 °F /  20.3 °C 58.3 °F /  14.6 °C 29.68in /  1005hPa South 2.0mph /  3.2km/h 9.0mph /  14.5km/h 70% 0.00in /  0mm
11:54 68.6 °F /  20.3 °C 58.0 °F /  14.4 °C 29.68in /  1005hPa SSW 7.0mph /  11.3km/h 9.0mph /  14.5km/h 69% 0.00in /  0mm
11:59 69.2 °F /  20.7 °C 58.6 °F /  14.8 °C 29.68in /  1005hPa SSW 5.0mph /  8km/h 9.0mph /  14.5km/h 69% 0.00in /  0mm
12:04 69.5 °F /  20.8 °C 58.1 °F /  14.5 °C 29.68in /  1005hPa SSW 5.0mph /  8km/h 11.0mph /  17.7km/h 67% 0.00in /  0mm
12:09 70.0 °F /  21.1 °C 58.1 °F /  14.5 °C 29.68in /  1005hPa SW 6.0mph /  9.7km/h 11.0mph /  17.7km/h 66% 0.00in /  0mm
12:14 70.0 °F /  21.1 °C 58.1 °F /  14.5 °C 29.68in /  1005hPa SW 7.0mph /  11.3km/h 12.0mph /  19.3km/h 66% 0.00in /  0mm
12:19 70.3 °F /  21.3 °C 57.5 °F /  14.2 °C 29.67in /  1004.6hPa SW 7.0mph /  11.3km/h 15.0mph /  24.1km/h 64% 0.00in /  0mm
12:24 71.1 °F /  21.7 °C 59.2 °F /  15.1 °C 29.67in /  1004.6hPa SSW 6.0mph /  9.7km/h 15.0mph /  24.1km/h 66% 0.00in /  0mm
12:29 70.8 °F /  21.6 °C 58.0 °F /  14.4 °C 29.67in /  1004.6hPa SSW 6.0mph /  9.7km/h 14.0mph /  22.5km/h 64% 0.00in /  0mm
12:34 71.8 °F /  22.1 °C 59.0 °F /  15 °C 29.66in /  1004.3hPa South 6.0mph /  9.7km/h 12.0mph /  19.3km/h 64% 0.00in /  0mm
12:39 71.8 °F /  22.1 °C 58.1 °F /  14.5 °C 29.66in /  1004.3hPa SSW 6.0mph /  9.7km/h 12.0mph /  19.3km/h 62% 0.00in /  0mm
12:44 71.5 °F /  21.9 °C 58.2 °F /  14.6 °C 29.66in /  1004.3hPa SSE 6.0mph /  9.7km/h 16.0mph /  25.7km/h 63% 0.00in /  0mm
12:49 71.6 °F /  22 °C 58.3 °F /  14.6 °C 29.66in /  1004.3hPa SW 6.0mph /  9.7km/h 13.0mph /  20.9km/h 63% 0.00in /  0mm
12:54 71.3 °F /  21.8 °C 57.6 °F /  14.2 °C 29.66in /  1004.3hPa SW 10.0mph /  16.1km/h 14.0mph /  22.5km/h 62% 0.00in /  0mm
12:59 71.6 °F /  22 °C 57.9 °F /  14.4 °C 29.65in /  1003.9hPa SW 8.0mph /  12.9km/h 19.0mph /  30.6km/h 62% 0.00in /  0mm
13:04 72.3 °F /  22.4 °C 58.1 °F /  14.5 °C 29.65in /  1003.9hPa SW 7.0mph /  11.3km/h 19.0mph /  30.6km/h 61% 0.00in /  0mm
13:09 71.8 °F /  22.1 °C 57.2 °F /  14 °C 29.65in /  1003.9hPa SW 7.0mph /  11.3km/h 14.0mph /  22.5km/h 60% 0.00in /  0mm
13:14 71.6 °F /  22 °C 57.4 °F /  14.1 °C 29.65in /  1003.9hPa SW 7.0mph /  11.3km/h 15.0mph /  24.1km/h 61% 0.00in /  0mm
13:19 70.9 °F /  21.6 °C 56.8 °F /  13.8 °C 29.65in /  1003.9hPa SW 7.0mph /  11.3km/h 15.0mph /  24.1km/h 61% 0.00in /  0mm
13:24 70.4 °F /  21.3 °C 56.8 °F /  13.8 °C 29.65in /  1003.9hPa WSW 7.0mph /  11.3km/h 14.0mph /  22.5km/h 62% 0.00in /  0mm
13:29 69.7 °F /  20.9 °C 56.1 °F /  13.4 °C 29.65in /  1003.9hPa SW 8.0mph /  12.9km/h 14.0mph /  22.5km/h 62% 0.00in /  0mm
13:34 69.7 °F /  20.9 °C 56.5 °F /  13.6 °C 29.65in /  1003.9hPa WSW 7.0mph /  11.3km/h 14.0mph /  22.5km/h 63% 0.00in /  0mm
13:39 70.3 °F /  21.3 °C 56.7 °F /  13.7 °C 29.64in /  1003.6hPa SW 4.0mph /  6.4km/h 12.0mph /  19.3km/h 62% 0.00in /  0mm
13:44 71.8 °F /  22.1 °C 58.1 °F /  14.5 °C 29.64in /  1003.6hPa WSW 6.0mph /  9.7km/h 9.0mph /  14.5km/h 62% 0.00in /  0mm
13:49 71.0 °F /  21.7 °C 56.4 °F /  13.6 °C 29.64in /  1003.6hPa WNW 7.0mph /  11.3km/h 14.0mph /  22.5km/h 60% 0.00in /  0mm
13:54 69.9 °F /  21.1 °C 56.3 °F /  13.5 °C 29.64in /  1003.6hPa South 7.0mph /  11.3km/h 14.0mph /  22.5km/h 62% 0.00in /  0mm
13:59 69.7 °F /  20.9 °C 56.5 °F /  13.6 °C 29.63in /  1003.3hPa SW 5.0mph /  8km/h 10.0mph /  16.1km/h 63% 0.00in /  0mm
14:04 69.2 °F /  20.7 °C 56.1 °F /  13.4 °C 29.63in /  1003.3hPa SW 5.0mph /  8km/h 10.0mph /  16.1km/h 63% 0.00in /  0mm
14:09 68.5 °F /  20.3 °C 55.8 °F /  13.2 °C 29.63in /  1003.3hPa SW 5.0mph /  8km/h 12.0mph /  19.3km/h 64% 0.00in /  0mm
14:14 67.9 °F /  19.9 °C 55.7 °F /  13.2 °C 29.63in /  1003.3hPa SW 5.0mph /  8km/h 12.0mph /  19.3km/h 65% 0.00in /  0mm
14:19 67.6 °F /  19.8 °C 55.0 °F /  12.8 °C 29.63in /  1003.3hPa SW 5.0mph /  8km/h 10.0mph /  16.1km/h 64% 0.00in /  0mm
14:24 68.1 °F /  20.1 °C 55.5 °F /  13.1 °C 29.63in /  1003.3hPa South 3.0mph /  4.8km/h 9.0mph /  14.5km/h 64% 0.00in /  0mm
14:29 67.7 °F /  19.8 °C 55.5 °F /  13.1 °C 29.63in /  1003.3hPa SW 3.0mph /  4.8km/h 10.0mph /  16.1km/h 65% 0.00in /  0mm
14:34 67.6 °F /  19.8 °C 55.4 °F /  13 °C 29.62in /  1002.9hPa SW 4.0mph /  6.4km/h 10.0mph /  16.1km/h 65% 0.00in /  0mm
14:39 67.6 °F /  19.8 °C 55.4 °F /  13 °C 29.63in /  1003.3hPa SSW 3.0mph /  4.8km/h 7.0mph /  11.3km/h 65% 0.00in /  0mm
14:44 67.0 °F /  19.4 °C 54.8 °F /  12.7 °C 29.63in /  1003.3hPa SSW 4.0mph /  6.4km/h 10.0mph /  16.1km/h 65% 0.00in /  0mm
14:49 66.9 °F /  19.4 °C 55.2 °F /  12.9 °C 29.63in /  1003.3hPa SW 4.0mph /  6.4km/h 10.0mph /  16.1km/h 66% 0.00in /  0mm
14:54 66.8 °F /  19.3 °C 54.7 °F /  12.6 °C 29.63in /  1003.3hPa WSW 4.0mph /  6.4km/h 7.0mph /  11.3km/h 65% 0.00in /  0mm
14:59 66.4 °F /  19.1 °C 54.7 °F /  12.6 °C 29.63in /  1003.3hPa SSW 3.0mph /  4.8km/h 7.0mph /  11.3km/h 66% 0.00in /  0mm
15:04 66.6 °F /  19.2 °C 55.3 °F /  12.9 °C 29.63in /  1003.3hPa West 3.0mph /  4.8km/h 6.0mph /  9.7km/h 67% 0.00in /  0mm
15:09 67.1 °F /  19.5 °C 54.9 °F /  12.7 °C 29.63in /  1003.3hPa WSW 3.0mph /  4.8km/h 6.0mph /  9.7km/h 65% 0.00in /  0mm
15:14 67.6 °F /  19.8 °C 55.0 °F /  12.8 °C 29.63in /  1003.3hPa WSW 3.0mph /  4.8km/h 7.0mph /  11.3km/h 64% 0.00in /  0mm
15:19 68.1 °F /  20.1 °C 55.0 °F /  12.8 °C 29.63in /  1003.3hPa West 2.0mph /  3.2km/h 5.0mph /  8km/h 63% 0.00in /  0mm
15:24 68.1 °F /  20.1 °C 55.0 °F /  12.8 °C 29.62in /  1002.9hPa SW 1.0mph /  1.6km/h 7.0mph /  11.3km/h 63% 0.00in /  0mm
15:29 68.0 °F /  20 °C 55.4 °F /  13 °C 29.63in /  1003.3hPa West 4.0mph /  6.4km/h 6.0mph /  9.7km/h 64% 0.00in /  0mm
15:34 67.9 °F /  19.9 °C 55.3 °F /  12.9 °C 29.62in /  1002.9hPa WNW 2.0mph /  3.2km/h 5.0mph /  8km/h 64% 0.00in /  0mm
15:39 68.5 °F /  20.3 °C 55.4 °F /  13 °C 29.62in /  1002.9hPa NW 2.0mph /  3.2km/h 4.0mph /  6.4km/h 63% 0.00in /  0mm
15:44 68.3 °F /  20.2 °C 54.8 °F /  12.7 °C 29.62in /  1002.9hPa WNW 3.0mph /  4.8km/h 7.0mph /  11.3km/h 62% 0.00in /  0mm
15:49 68.5 °F /  20.3 °C 55.0 °F /  12.8 °C 29.62in /  1002.9hPa West 3.0mph /  4.8km/h 7.0mph /  11.3km/h 62% 0.00in /  0mm
15:54 68.7 °F /  20.4 °C 54.7 °F /  12.6 °C 29.62in /  1002.9hPa West 4.0mph /  6.4km/h 7.0mph /  11.3km/h 61% 0.00in /  0mm
15:59 68.8 °F /  20.4 °C 54.8 °F /  12.7 °C 29.62in /  1002.9hPa WSW 3.0mph /  4.8km/h 6.0mph /  9.7km/h 61% 0.00in /  0mm
16:04 68.7 °F /  20.4 °C 54.3 °F /  12.4 °C 29.61in /  1002.6hPa SW 1.0mph /  1.6km/h 6.0mph /  9.7km/h 60% 0.00in /  0mm
16:09 68.4 °F /  20.2 °C 54.4 °F /  12.4 °C 29.61in /  1002.6hPa WSW 1.0mph /  1.6km/h 3.0mph /  4.8km/h 61% 0.00in /  0mm
16:14 68.1 °F /  20.1 °C 55.9 °F /  13.3 °C 29.61in /  1002.6hPa WNW 2.0mph /  3.2km/h 4.0mph /  6.4km/h 65% 0.00in /  0mm
16:19 66.4 °F /  19.1 °C 55.1 °F /  12.8 °C 29.61in /  1002.6hPa North 3.0mph /  4.8km/h 9.0mph /  14.5km/h 67% 0.00in /  0mm
16:24 64.8 °F /  18.2 °C 54.0 °F /  12.2 °C 29.61in /  1002.6hPa NE 6.0mph /  9.7km/h 6.0mph /  9.7km/h 68% 0.00in /  0mm
16:29 64.1 °F /  17.8 °C 53.7 °F /  12.1 °C 29.61in /  1002.6hPa NNE 3.0mph /  4.8km/h 7.0mph /  11.3km/h 69% 0.00in /  0mm
16:34 63.8 °F /  17.7 °C 53.8 °F /  12.1 °C 29.61in /  1002.6hPa NNE 2.0mph /  3.2km/h 4.0mph /  6.4km/h 70% 0.00in /  0mm
16:39 63.8 °F /  17.7 °C 53.8 °F /  12.1 °C 29.61in /  1002.6hPa NE 3.0mph /  4.8km/h 7.0mph /  11.3km/h 70% 0.00in /  0mm
16:44 63.2 °F /  17.3 °C 53.3 °F /  11.8 °C 29.61in /  1002.6hPa ENE 5.0mph /  8km/h 8.0mph /  12.9km/h 70% 0.00in /  0mm
16:49 62.4 °F /  16.9 °C 52.9 °F /  11.6 °C 29.61in /  1002.6hPa NE 4.0mph /  6.4km/h 8.0mph /  12.9km/h 71% 0.00in /  0mm
16:54 61.9 °F /  16.6 °C 52.8 °F /  11.6 °C 29.61in /  1002.6hPa NE 4.0mph /  6.4km/h 9.0mph /  14.5km/h 72% 0.00in /  0mm
16:59 61.3 °F /  16.3 °C 52.6 °F /  11.4 °C 29.61in /  1002.6hPa NE 4.0mph /  6.4km/h 9.0mph /  14.5km/h 73% 0.00in /  0mm
17:04 60.9 °F /  16.1 °C 52.2 °F /  11.2 °C 29.61in /  1002.6hPa NNE 4.0mph /  6.4km/h 7.0mph /  11.3km/h 73% 0.00in /  0mm
17:09 60.4 °F /  15.8 °C 51.7 °F /  10.9 °C 29.61in /  1002.6hPa NE 7.0mph /  11.3km/h 9.0mph /  14.5km/h 73% 0.00in /  0mm
17:14 59.6 °F /  15.3 °C 51.3 °F /  10.7 °C 29.61in /  1002.6hPa NE 6.0mph /  9.7km/h 9.0mph /  14.5km/h 74% 0.00in /  0mm
17:19 58.9 °F /  14.9 °C 51.0 °F /  10.6 °C 29.61in /  1002.6hPa NE 5.0mph /  8km/h 11.0mph /  17.7km/h 75% 0.00in /  0mm
17:24 58.3 °F /  14.6 °C 50.8 °F /  10.4 °C 29.60in /  1002.3hPa NE 5.0mph /  8km/h 11.0mph /  17.7km/h 76% 0.00in /  0mm
17:29 58.1 °F /  14.5 °C 50.6 °F /  10.3 °C 29.60in /  1002.3hPa NE 4.0mph /  6.4km/h 9.0mph /  14.5km/h 76% 0.00in /  0mm
17:34 57.9 °F /  14.4 °C 50.7 °F /  10.4 °C 29.60in /  1002.3hPa NE 5.0mph /  8km/h 6.0mph /  9.7km/h 77% 0.00in /  0mm
17:39 57.7 °F /  14.3 °C 50.5 °F /  10.3 °C 29.61in /  1002.6hPa North 3.0mph /  4.8km/h 7.0mph /  11.3km/h 77% 0.00in /  0mm
17:44 57.5 °F /  14.2 °C 50.3 °F /  10.2 °C 29.61in /  1002.6hPa NE 2.0mph /  3.2km/h 7.0mph /  11.3km/h 77% 0.00in /  0mm
17:49 57.2 °F /  14 °C 50.1 °F /  10.1 °C 29.61in /  1002.6hPa NE 4.0mph /  6.4km/h 7.0mph /  11.3km/h 77% 0.00in /  0mm
17:54 56.9 °F /  13.8 °C 50.1 °F /  10.1 °C 29.61in /  1002.6hPa NE 4.0mph /  6.4km/h 8.0mph /  12.9km/h 78% 0.00in /  0mm
17:59 56.7 °F /  13.7 °C 49.9 °F /  9.9 °C 29.62in /  1002.9hPa NE 4.0mph /  6.4km/h 9.0mph /  14.5km/h 78% 0.00in /  0mm
18:04 56.3 °F /  13.5 °C 49.5 °F /  9.7 °C 29.62in /  1002.9hPa NE 3.0mph /  4.8km/h 9.0mph /  14.5km/h 78% 0.00in /  0mm
18:09 56.1 °F /  13.4 °C 49.7 °F /  9.8 °C 29.62in /  1002.9hPa NNE 2.0mph /  3.2km/h 4.0mph /  6.4km/h 79% 0.00in /  0mm
18:14 55.8 °F /  13.2 °C 49.4 °F /  9.7 °C 29.62in /  1002.9hPa NNE 2.0mph /  3.2km/h 3.0mph /  4.8km/h 79% 0.00in /  0mm
18:19 55.7 °F /  13.2 °C 49.3 °F /  9.6 °C 29.62in /  1002.9hPa NNE 2.0mph /  3.2km/h 3.0mph /  4.8km/h 79% 0.00in /  0mm
18:24 55.3 °F /  12.9 °C 49.2 °F /  9.6 °C 29.63in /  1003.3hPa NNE 2.0mph /  3.2km/h 3.0mph /  4.8km/h 80% 0.00in /  0mm
18:29 55.2 °F /  12.9 °C 49.1 °F /  9.5 °C 29.62in /  1002.9hPa NNW 4.0mph /  6.4km/h 4.0mph /  6.4km/h 80% 0.00in /  0mm
18:34 54.8 °F /  12.7 °C 48.7 °F /  9.3 °C 29.62in /  1002.9hPa NNE 2.0mph /  3.2km/h 4.0mph /  6.4km/h 80% 0.00in /  0mm
18:39 54.5 °F /  12.5 °C 48.8 °F /  9.3 °C 29.62in /  1002.9hPa North 2.0mph /  3.2km/h 3.0mph /  4.8km/h 81% 0.00in /  0mm
18:44 54.2 °F /  12.3 °C 48.5 °F /  9.2 °C 29.63in /  1003.3hPa NNW 4.0mph /  6.4km/h 4.0mph /  6.4km/h 81% 0.00in /  0mm
18:49 53.8 °F /  12.1 °C 48.1 °F /  8.9 °C 29.63in /  1003.3hPa NNW 1.0mph /  1.6km/h 5.0mph /  8km/h 81% 0.00in /  0mm
18:54 53.3 °F /  11.8 °C 47.6 °F /  8.7 °C 29.63in /  1003.3hPa North 2.0mph /  3.2km/h 5.0mph /  8km/h 81% 0.00in /  0mm
18:59 52.9 °F /  11.6 °C 47.6 °F /  8.7 °C 29.63in /  1003.3hPa North 3.0mph /  4.8km/h 6.0mph /  9.7km/h 82% 0.00in /  0mm
19:04 52.7 °F /  11.5 °C 47.4 °F /  8.6 °C 29.64in /  1003.6hPa North 3.0mph /  4.8km/h 6.0mph /  9.7km/h 82% 0.00in /  0mm
19:09 52.6 °F /  11.4 °C 47.3 °F /  8.5 °C 29.64in /  1003.6hPa NNE 2.0mph /  3.2km/h 5.0mph /  8km/h 82% 0.00in /  0mm
19:14 52.5 °F /  11.4 °C 47.5 °F /  8.6 °C 29.64in /  1003.6hPa NE 2.0mph /  3.2km/h 8.0mph /  12.9km/h 83% 0.00in /  0mm
19:19 52.4 °F /  11.3 °C 47.1 °F /  8.4 °C 29.63in /  1003.3hPa North 1.0mph /  1.6km/h 6.0mph /  9.7km/h 82% 0.00in /  0mm
19:24 52.0 °F /  11.1 °C 46.7 °F /  8.2 °C 29.63in /  1003.3hPa NE 3.0mph /  4.8km/h 6.0mph /  9.7km/h 82% 0.00in /  0mm
19:29 51.6 °F /  10.9 °C 46.6 °F /  8.1 °C 29.63in /  1003.3hPa NE 3.0mph /  4.8km/h 6.0mph /  9.7km/h 83% 0.00in /  0mm
19:34 51.2 °F /  10.7 °C 46.2 °F /  7.9 °C 29.62in /  1002.9hPa NNE 4.0mph /  6.4km/h 7.0mph /  11.3km/h 83% 0.00in /  0mm
19:39 50.7 °F /  10.4 °C 45.7 °F /  7.6 °C 29.62in /  1002.9hPa NE 2.0mph /  3.2km/h 7.0mph /  11.3km/h 83% 0.00in /  0mm
19:44 50.4 °F /  10.2 °C 45.7 °F /  7.6 °C 29.62in /  1002.9hPa NNE 3.0mph /  4.8km/h 10.0mph /  16.1km/h 84% 0.00in /  0mm
19:49 50.2 °F /  10.1 °C 45.6 °F /  7.6 °C 29.62in /  1002.9hPa ENE 2.0mph /  3.2km/h 9.0mph /  14.5km/h 84% 0.00in /  0mm
19:54 50.1 °F /  10.1 °C 45.5 °F /  7.5 °C 29.62in /  1002.9hPa NE 3.0mph /  4.8km/h 9.0mph /  14.5km/h 84% 0.00in /  0mm
19:59 49.9 °F /  9.9 °C 45.3 °F /  7.4 °C 29.61in /  1002.6hPa ENE 3.0mph /  4.8km/h 6.0mph /  9.7km/h 84% 0.00in /  0mm
20:04 49.7 °F /  9.8 °C 45.4 °F /  7.4 °C 29.61in /  1002.6hPa ENE 3.0mph /  4.8km/h 6.0mph /  9.7km/h 85% 0.00in /  0mm
20:09 49.6 °F /  9.8 °C 45.3 °F /  7.4 °C 29.61in /  1002.6hPa ENE 3.0mph /  4.8km/h 6.0mph /  9.7km/h 85% 0.00in /  0mm
20:14 49.6 °F /  9.8 °C 45.3 °F /  7.4 °C 29.61in /  1002.6hPa ENE 2.0mph /  3.2km/h 6.0mph /  9.7km/h 85% 0.00in /  0mm
20:19 49.6 °F /  9.8 °C 45.3 °F /  7.4 °C 29.60in /  1002.3hPa ENE 2.0mph /  3.2km/h 3.0mph /  4.8km/h 85% 0.00in /  0mm
20:24 49.9 °F /  9.9 °C 45.6 °F /  7.6 °C 29.60in /  1002.3hPa NE 1.0mph /  1.6km/h 4.0mph /  6.4km/h 85% 0.00in /  0mm
20:29 49.8 °F /  9.9 °C 45.5 °F /  7.5 °C 29.60in /  1002.3hPa North 1.0mph /  1.6km/h 3.0mph /  4.8km/h 85% 0.00in /  0mm
20:34 49.8 °F /  9.9 °C 45.8 °F /  7.7 °C 29.60in /  1002.3hPa Calm   2.0mph /  3.2km/h 86% 0.00in /  0mm
20:39 50.0 °F /  10 °C 45.7 °F /  7.6 °C 29.60in /  1002.3hPa Calm     85% 0.00in /  0mm
20:44 50.0 °F /  10 °C 45.7 °F /  7.6 °C 29.59in /  1001.9hPa East 1.0mph /  1.6km/h 5.0mph /  8km/h 85% 0.00in /  0mm
20:49 49.9 °F /  9.9 °C 45.6 °F /  7.6 °C 29.58in /  1001.6hPa ENE 2.0mph /  3.2km/h 5.0mph /  8km/h 85% 0.00in /  0mm
20:54 50.0 °F /  10 °C 45.7 °F /  7.6 °C 29.58in /  1001.6hPa ENE 3.0mph /  4.8km/h 5.0mph /  8km/h 85% 0.00in /  0mm
20:59 49.9 °F /  9.9 °C 45.6 °F /  7.6 °C 29.58in /  1001.6hPa ENE 2.0mph /  3.2km/h 4.0mph /  6.4km/h 85% 0.00in /  0mm
21:04 50.0 °F /  10 °C 46.0 °F /  7.8 °C 29.57in /  1001.2hPa ENE 1.0mph /  1.6km/h 4.0mph /  6.4km/h 86% 0.00in /  0mm
21:09 50.1 °F /  10.1 °C 45.8 °F /  7.7 °C 29.57in /  1001.2hPa Calm   3.0mph /  4.8km/h 85% 0.00in /  0mm
21:14 50.1 °F /  10.1 °C 45.8 °F /  7.7 °C 29.57in /  1001.2hPa NE 1.0mph /  1.6km/h 4.0mph /  6.4km/h 85% 0.00in /  0mm
21:19 50.1 °F /  10.1 °C 45.8 °F /  7.7 °C 29.56in /  1000.9hPa East 1.0mph /  1.6km/h 4.0mph /  6.4km/h 85% 0.00in /  0mm
21:24 50.1 °F /  10.1 °C 45.8 °F /  7.7 °C 29.56in /  1000.9hPa ENE 2.0mph /  3.2km/h 4.0mph /  6.4km/h 85% 0.00in /  0mm
21:29 50.2 °F /  10.1 °C 46.2 °F /  7.9 °C 29.56in /  1000.9hPa Calm   3.0mph /  4.8km/h 86% 0.00in /  0mm
21:34 50.2 °F /  10.1 °C 45.9 °F /  7.7 °C 29.56in /  1000.9hPa Calm     85% 0.00in /  0mm
21:39 50.3 °F /  10.2 °C 46.3 °F /  7.9 °C 29.56in /  1000.9hPa Calm     86% 0.00in /  0mm
21:44 50.3 °F /  10.2 °C 46.0 °F /  7.8 °C 29.55in /  1000.6hPa Calm     85% 0.00in /  0mm
21:49 50.6 °F /  10.3 °C 46.6 °F /  8.1 °C 29.55in /  1000.6hPa Calm     86% 0.00in /  0mm
21:54 50.7 °F /  10.4 °C 46.4 °F /  8 °C 29.55in /  1000.6hPa Calm     85% 0.00in /  0mm
21:59 50.8 °F /  10.4 °C 46.8 °F /  8.2 °C 29.54in /  1000.2hPa Calm     86% 0.00in /  0mm
22:04 50.8 °F /  10.4 °C 46.5 °F /  8.1 °C 29.54in /  1000.2hPa Calm     85% 0.00in /  0mm
22:09 51.1 °F /  10.6 °C 47.1 °F /  8.4 °C 29.54in /  1000.2hPa Calm     86% 0.00in /  0mm
22:14 50.9 °F /  10.5 °C 46.6 °F /  8.1 °C 29.54in /  1000.2hPa Calm     85% 0.00in /  0mm
22:19 51.0 °F /  10.6 °C 47.0 °F /  8.3 °C 29.53in /  999.9hPa Calm     86% 0.00in /  0mm
22:24 51.1 °F /  10.6 °C 46.7 °F /  8.2 °C 29.53in /  999.9hPa Calm     85% 0.00in /  0mm
22:29 50.7 °F /  10.4 °C 46.4 °F /  8 °C 29.53in /  999.9hPa Calm     85% 0.00in /  0mm
22:34 50.6 °F /  10.3 °C 46.6 °F /  8.1 °C 29.53in /  999.9hPa Calm     86% 0.00in /  0mm
22:39 50.5 °F /  10.3 °C 46.5 °F /  8.1 °C 29.53in /  999.9hPa Calm     86% 0.00in /  0mm
22:44 50.8 °F /  10.4 °C 47.1 °F /  8.4 °C 29.53in /  999.9hPa ESE 1.0mph /  1.6km/h 3.0mph /  4.8km/h 87% 0.00in /  0mm
22:49 51.8 °F /  11 °C 48.1 °F /  8.9 °C 29.53in /  999.9hPa SSE 3.0mph /  4.8km/h 4.0mph /  6.4km/h 87% 0.00in /  0mm
22:54 53.7 °F /  12.1 °C 49.0 °F /  9.4 °C 29.53in /  999.9hPa South 4.0mph /  6.4km/h 6.0mph /  9.7km/h 84% 0.00in /  0mm
22:59 56.6 °F /  13.7 °C 50.2 °F /  10.1 °C 29.52in /  999.5hPa South 3.0mph /  4.8km/h 9.0mph /  14.5km/h 79% 0.00in /  0mm
23:04 60.3 °F /  15.7 °C 51.2 °F /  10.7 °C 29.52in /  999.5hPa South 5.0mph /  8km/h 12.0mph /  19.3km/h 72% 0.00in /  0mm
23:09 62.5 °F /  16.9 °C 52.2 °F /  11.2 °C 29.52in /  999.5hPa South 4.0mph /  6.4km/h 10.0mph /  16.1km/h 69% 0.00in /  0mm
23:14 63.7 °F /  17.6 °C 52.1 °F /  11.2 °C 29.51in /  999.2hPa SSE 5.0mph /  8km/h 13.0mph /  20.9km/h 66% 0.00in /  0mm
23:19 64.3 °F /  17.9 °C 52.3 °F /  11.3 °C 29.51in /  999.2hPa SSE 6.0mph /  9.7km/h 11.0mph /  17.7km/h 65% 0.00in /  0mm
23:24 64.8 °F /  18.2 °C 52.3 °F /  11.3 °C 29.51in /  999.2hPa South 7.0mph /  11.3km/h 11.0mph /  17.7km/h 64% 0.00in /  0mm
23:29 65.1 °F /  18.4 °C 52.2 °F /  11.2 °C 29.51in /  999.2hPa South 7.0mph /  11.3km/h 20.0mph /  32.2km/h 63% 0.00in /  0mm
23:34 65.3 °F /  18.5 °C 52.4 °F /  11.3 °C 29.50in /  998.9hPa South 7.0mph /  11.3km/h 20.0mph /  32.2km/h 63% 0.00in /  0mm
23:39 65.5 °F /  18.6 °C 52.1 °F /  11.2 °C 29.50in /  998.9hPa South 7.0mph /  11.3km/h 14.0mph /  22.5km/h 62% 0.00in /  0mm
23:44 65.4 °F /  18.6 °C 52.0 °F /  11.1 °C 29.50in /  998.9hPa South 7.0mph /  11.3km/h 21.0mph /  33.8km/h 62% 0.00in /  0mm
23:49 65.7 °F /  18.7 °C 52.3 °F /  11.3 °C 29.51in /  999.2hPa South 7.0mph /  11.3km/h 21.0mph /  33.8km/h 62% 0.00in /  0mm
23:54 65.6 °F /  18.7 °C 52.2 °F /  11.2 °C 29.51in /  999.2hPa South 7.0mph /  11.3km/h 14.0mph /  22.5km/h 62% 0.00in /  0mm
23:59 65.5 °F /  18.6 °C 52.1 °F /  11.2 °C 29.51in /  999.2hPa South 7.0mph /  11.3km/h 12.0mph /  19.3km/h 62% 0.00in /  0mm
Buffalo, New York, USA
Compliments of Weather Underground - 2.5 mb